HCMH

Egal International Airport

Hargeisa, Somalia
METAR HCMH 211200Z 36010KT 9999 FEW030 27/13 Q1015
Observed Flight Rules
Feb-21 @ 12:00 UTC (an hour ago) Visual Flight Rules
Wind Visibility Clouds
360° at 10 knots 10,000+ meters
  • Few at 3,000' AGL
Temperatures Readings
Current 27°C / 81°F
Dewpoint 13°C / 55°F
Humidity 42%
Altimeter 29.97" Hg
Pressure 1015 hPa
Elevation 1326
METAR HCMH 211200Z 36010KT 9999 FEW030 27/13 Q1015
Observed Flight Rules
Feb-21 @ 12:00 UTC
(an hour ago)
VFR
Wind Visibility
360° at 10 knots 10,000+ meters
Clouds
  • Few at 3,000' AGL
Temperature Dewpoint
27°C / 81°F 13°C / 55°F
Humidity Altimeter Pressure
42% 29.97" Hg 1015 hPa